sensor_id;sensor_type;location;lat;lon;timestamp;pressure;altitude;pressure_sealevel;temperature;humidity
6216;BME280;3141;49.234;9.326;2024-02-26T00:00:13;97810.59;;;11.04;58.55
6216;BME280;3141;49.234;9.326;2024-02-26T00:00:56;97806.69;;;11.13;58.28
6216;BME280;3141;49.234;9.326;2024-02-26T00:01:38;97809.34;;;11.13;58.54
6216;BME280;3141;49.234;9.326;2024-02-26T00:02:20;97805.91;;;11.19;57.83
6216;BME280;3141;49.234;9.326;2024-02-26T00:03:03;97806.50;;;11.21;57.83
6216;BME280;3141;49.234;9.326;2024-02-26T00:03:45;97801.22;;;11.21;57.40
6216;BME280;3141;49.234;9.326;2024-02-26T00:04:29;97808.94;;;11.29;57.41
6216;BME280;3141;49.234;9.326;2024-02-26T00:05:11;97802.03;;;11.15;57.95
6216;BME280;3141;49.234;9.326;2024-02-26T00:05:54;97805.91;;;11.13;57.69
6216;BME280;3141;49.234;9.326;2024-02-26T00:06:38;97800.41;;;11.14;57.58
6216;BME280;3141;49.234;9.326;2024-02-26T00:07:23;97799.38;;;11.15;57.53
6216;BME280;3141;49.234;9.326;2024-02-26T00:08:05;97794.28;;;11.20;57.57
6216;BME280;3141;49.234;9.326;2024-02-26T00:08:48;97791.66;;;11.20;57.63
6216;BME280;3141;49.234;9.326;2024-02-26T00:09:30;97790.03;;;11.13;57.33
6216;BME280;3141;49.234;9.326;2024-02-26T00:10:13;97787.00;;;11.09;57.24
6216;BME280;3141;49.234;9.326;2024-02-26T00:10:56;97791.66;;;11.20;57.29
6216;BME280;3141;49.234;9.326;2024-02-26T00:11:38;97790.25;;;11.18;57.12
6216;BME280;3141;49.234;9.326;2024-02-26T00:12:21;97789.84;;;11.14;57.48
6216;BME280;3141;49.234;9.326;2024-02-26T00:13:03;97795.72;;;11.10;57.75
6216;BME280;3141;49.234;9.326;2024-02-26T00:13:45;97784.56;;;11.08;57.53
6216;BME280;3141;49.234;9.326;2024-02-26T00:14:28;97790.25;;;11.18;56.98
6216;BME280;3141;49.234;9.326;2024-02-26T00:15:10;97786.56;;;11.25;56.87
6216;BME280;3141;49.234;9.326;2024-02-26T00:15:52;97785.16;;;11.23;57.47
6216;BME280;3141;49.234;9.326;2024-02-26T00:16:35;97789.81;;;11.27;57.04
6216;BME280;3141;49.234;9.326;2024-02-26T00:17:17;97787.78;;;11.29;56.66
6216;BME280;3141;49.234;9.326;2024-02-26T00:18:00;97778.22;;;11.22;56.98
6216;BME280;3141;49.234;9.326;2024-02-26T00:18:42;97783.28;;;11.23;57.37
6216;BME280;3141;49.234;9.326;2024-02-26T00:19:25;97779.66;;;11.24;57.20
6216;BME280;3141;49.234;9.326;2024-02-26T00:20:07;97779.06;;;11.16;57.49
6216;BME280;3141;49.234;9.326;2024-02-26T00:20:53;97778.03;;;11.17;57.29
6216;BME280;3141;49.234;9.326;2024-02-26T00:21:35;97783.50;;;11.22;57.32
6216;BME280;3141;49.234;9.326;2024-02-26T00:22:17;97779.25;;;11.21;57.18
6216;BME280;3141;49.234;9.326;2024-02-26T00:23:00;97780.47;;;11.12;57.48
6216;BME280;3141;49.234;9.326;2024-02-26T00:23:42;97783.75;;;11.07;57.36
6216;BME280;3141;49.234;9.326;2024-02-26T00:24:25;97789.81;;;11.21;57.17
6216;BME280;3141;49.234;9.326;2024-02-26T00:25:07;97777.22;;;11.16;56.96
6216;BME280;3141;49.234;9.326;2024-02-26T00:25:50;97779.84;;;11.10;57.21
6216;BME280;3141;49.234;9.326;2024-02-26T00:26:32;97782.09;;;11.19;56.99
6216;BME280;3141;49.234;9.326;2024-02-26T00:27:14;97786.75;;;11.24;57.04
6216;BME280;3141;49.234;9.326;2024-02-26T00:27:56;97787.38;;;11.26;56.86
6216;BME280;3141;49.234;9.326;2024-02-26T00:28:39;97781.25;;;11.25;57.27
6216;BME280;3141;49.234;9.326;2024-02-26T00:29:22;97787.19;;;11.21;57.70
6216;BME280;3141;49.234;9.326;2024-02-26T00:30:05;97784.53;;;11.14;57.53
6216;BME280;3141;49.234;9.326;2024-02-26T00:30:47;97783.72;;;11.14;57.67
6216;BME280;3141;49.234;9.326;2024-02-26T00:31:30;97792.06;;;11.11;57.78
6216;BME280;3141;49.234;9.326;2024-02-26T00:32:12;97791.25;;;11.10;58.02
6216;BME280;3141;49.234;9.326;2024-02-26T00:32:55;97787.78;;;11.10;58.17
6216;BME280;3141;49.234;9.326;2024-02-26T00:33:37;97792.28;;;11.09;58.41
6216;BME280;3141;49.234;9.326;2024-02-26T00:34:20;97793.69;;;11.05;58.79
6216;BME280;3141;49.234;9.326;2024-02-26T00:35:02;97790.44;;;11.03;58.59
6216;BME280;3141;49.234;9.326;2024-02-26T00:35:45;97790.63;;;11.08;58.30
6216;BME280;3141;49.234;9.326;2024-02-26T00:36:27;97796.34;;;11.12;58.40
6216;BME280;3141;49.234;9.326;2024-02-26T00:37:10;97786.19;;;11.09;58.31
6216;BME280;3141;49.234;9.326;2024-02-26T00:37:52;97795.72;;;11.10;58.80
6216;BME280;3141;49.234;9.326;2024-02-26T00:38:35;97795.53;;;11.05;58.82
6216;BME280;3141;49.234;9.326;2024-02-26T00:39:17;97793.69;;;11.05;58.90
6216;BME280;3141;49.234;9.326;2024-02-26T00:40:00;97793.72;;;10.99;59.11
6216;BME280;3141;49.234;9.326;2024-02-26T00:40:42;97794.09;;;10.89;59.43
6216;BME280;3141;49.234;9.326;2024-02-26T00:41:24;97797.56;;;10.83;59.68
6216;BME280;3141;49.234;9.326;2024-02-26T00:42:07;97791.06;;;10.86;59.54
6216;BME280;3141;49.234;9.326;2024-02-26T00:42:50;97784.75;;;10.87;59.66
6216;BME280;3141;49.234;9.326;2024-02-26T00:43:32;97792.69;;;10.93;59.28
6216;BME280;3141;49.234;9.326;2024-02-26T00:44:14;97785.16;;;10.84;59.63
6216;BME280;3141;49.234;9.326;2024-02-26T00:44:57;97787.00;;;10.90;59.95
6216;BME280;3141;49.234;9.326;2024-02-26T00:45:39;97788.44;;;10.92;59.70
6216;BME280;3141;49.234;9.326;2024-02-26T00:46:21;97788.59;;;10.91;59.62
6216;BME280;3141;49.234;9.326;2024-02-26T00:47:04;97788.00;;;10.82;60.20
6216;BME280;3141;49.234;9.326;2024-02-26T00:47:46;97794.31;;;10.81;60.22
6216;BME280;3141;49.234;9.326;2024-02-26T00:48:30;97795.13;;;10.82;60.33
6216;BME280;3141;49.234;9.326;2024-02-26T00:49:12;97797.97;;;10.80;60.46
6216;BME280;3141;49.234;9.326;2024-02-26T00:49:54;97799.19;;;10.78;60.59
6216;BME280;3141;49.234;9.326;2024-02-26T00:50:37;97800.81;;;10.72;60.54
6216;BME280;3141;49.234;9.326;2024-02-26T00:51:19;97801.22;;;10.76;60.63
6216;BME280;3141;49.234;9.326;2024-02-26T00:52:01;97805.88;;;10.74;60.85
6216;BME280;3141;49.234;9.326;2024-02-26T00:52:44;97802.03;;;10.76;60.52
6216;BME280;3141;49.234;9.326;2024-02-26T00:53:26;97810.16;;;10.81;60.46
6216;BME280;3141;49.234;9.326;2024-02-26T00:54:08;97793.50;;;10.74;60.48
6216;BME280;3141;49.234;9.326;2024-02-26T00:54:50;97797.97;;;10.74;60.37
6216;BME280;3141;49.234;9.326;2024-02-26T00:55:33;97795.94;;;10.76;60.29
6216;BME280;3141;49.234;9.326;2024-02-26T00:56:15;97796.34;;;10.79;60.42
6216;BME280;3141;49.234;9.326;2024-02-26T00:56:57;97797.38;;;10.78;60.46
6216;BME280;3141;49.234;9.326;2024-02-26T00:57:40;97795.34;;;10.80;60.35
6216;BME280;3141;49.234;9.326;2024-02-26T00:58:22;97797.38;;;10.78;60.61
6216;BME280;3141;49.234;9.326;2024-02-26T00:59:05;97794.72;;;10.78;60.43
6216;BME280;3141;49.234;9.326;2024-02-26T00:59:48;97794.72;;;10.78;60.75
6216;BME280;3141;49.234;9.326;2024-02-26T01:00:30;97794.94;;;10.77;60.68
6216;BME280;3141;49.234;9.326;2024-02-26T01:01:12;97797.56;;;10.77;60.80
6216;BME280;3141;49.234;9.326;2024-02-26T01:01:55;97797.34;;;10.65;61.24
6216;BME280;3141;49.234;9.326;2024-02-26T01:02:37;97795.31;;;10.67;60.84
6216;BME280;3141;49.234;9.326;2024-02-26T01:03:20;97797.97;;;10.67;61.20
6216;BME280;3141;49.234;9.326;2024-02-26T01:04:03;97795.09;;;10.69;61.16
6216;BME280;3141;49.234;9.326;2024-02-26T01:04:45;97797.13;;;10.67;61.42
6216;BME280;3141;49.234;9.326;2024-02-26T01:05:27;97795.09;;;10.62;61.08
6216;BME280;3141;49.234;9.326;2024-02-26T01:06:10;97790.84;;;10.61;60.66
6216;BME280;3141;49.234;9.326;2024-02-26T01:06:52;97789.03;;;10.68;60.83
6216;BME280;3141;49.234;9.326;2024-02-26T01:07:34;97791.06;;;10.66;61.06
6216;BME280;3141;49.234;9.326;2024-02-26T01:08:20;97792.69;;;10.67;61.30
6216;BME280;3141;49.234;9.326;2024-02-26T01:09:02;97793.28;;;10.69;61.50
6216;BME280;3141;49.234;9.326;2024-02-26T01:09:45;97797.34;;;10.65;61.59
6216;BME280;3141;49.234;9.326;2024-02-26T01:10:27;97791.44;;;10.63;61.47
6216;BME280;3141;49.234;9.326;2024-02-26T01:11:09;97797.97;;;10.54;62.07
6216;BME280;3141;49.234;9.326;2024-02-26T01:11:52;97792.66;;;10.54;62.12
6216;BME280;3141;49.234;9.326;2024-02-26T01:12:34;97787.38;;;10.54;62.35
6216;BME280;3141;49.234;9.326;2024-02-26T01:13:17;97787.78;;;10.51;62.14
6216;BME280;3141;49.234;9.326;2024-02-26T01:13:59;97787.78;;;10.51;62.01
6216;BME280;3141;49.234;9.326;2024-02-26T01:14:42;97787.78;;;10.51;62.45
6216;BME280;3141;49.234;9.326;2024-02-26T01:15:24;97791.44;;;10.50;62.78
6216;BME280;3141;49.234;9.326;2024-02-26T01:16:06;97786.16;;;10.50;62.42
6216;BME280;3141;49.234;9.326;2024-02-26T01:16:49;97788.19;;;10.48;62.40
6216;BME280;3141;49.234;9.326;2024-02-26T01:17:31;97784.13;;;10.45;62.58
6216;BME280;3141;49.234;9.326;2024-02-26T01:18:13;97781.06;;;10.42;62.30
6216;BME280;3141;49.234;9.326;2024-02-26T01:18:56;97785.72;;;10.40;63.13
6216;BME280;3141;49.234;9.326;2024-02-26T01:19:39;97780.66;;;10.45;62.80
6216;BME280;3141;49.234;9.326;2024-02-26T01:20:21;97783.25;;;10.32;62.86
6216;BME280;3141;49.234;9.326;2024-02-26T01:21:03;97785.69;;;10.27;63.39
6216;BME280;3141;49.234;9.326;2024-02-26T01:21:49;97780.44;;;10.33;63.54
6216;BME280;3141;49.234;9.326;2024-02-26T01:22:31;97780.44;;;10.33;63.54
6216;BME280;3141;49.234;9.326;2024-02-26T01:23:13;97779.22;;;10.36;63.27
6216;BME280;3141;49.234;9.326;2024-02-26T01:23:56;97785.53;;;10.35;63.29
6216;BME280;3141;49.234;9.326;2024-02-26T01:24:38;97780.03;;;10.36;63.06
6216;BME280;3141;49.234;9.326;2024-02-26T01:25:20;97779.00;;;10.37;63.22
6216;BME280;3141;49.234;9.326;2024-02-26T01:26:03;97782.47;;;10.38;62.97
6216;BME280;3141;49.234;9.326;2024-02-26T01:26:46;97781.06;;;10.42;62.89
6216;BME280;3141;49.234;9.326;2024-02-26T01:27:29;97781.28;;;10.40;62.53
6216;BME280;3141;49.234;9.326;2024-02-26T01:28:11;97782.06;;;10.41;62.47
6216;BME280;3141;49.234;9.326;2024-02-26T01:28:53;97777.19;;;10.38;62.90
6216;BME280;3141;49.234;9.326;2024-02-26T01:29:37;97782.47;;;10.31;63.42
6216;BME280;3141;49.234;9.326;2024-02-26T01:30:20;97790.38;;;10.31;63.47
6216;BME280;3141;49.234;9.326;2024-02-26T01:31:03;97787.53;;;10.33;63.57
6216;BME280;3141;49.234;9.326;2024-02-26T01:31:48;97785.53;;;10.35;63.23
6216;BME280;3141;49.234;9.326;2024-02-26T01:32:30;97782.06;;;10.34;63.58
6216;BME280;3141;49.234;9.326;2024-02-26T01:33:13;97781.25;;;10.34;63.70
6216;BME280;3141;49.234;9.326;2024-02-26T01:33:55;97774.75;;;10.36;63.35
6216;BME280;3141;49.234;9.326;2024-02-26T01:34:38;97780.25;;;10.35;63.44
6216;BME280;3141;49.234;9.326;2024-02-26T01:35:20;97784.69;;;10.28;63.48
6216;BME280;3141;49.234;9.326;2024-02-26T01:36:03;97784.91;;;10.33;63.62
6216;BME280;3141;49.234;9.326;2024-02-26T01:36:45;97789.16;;;10.34;63.40
6216;BME280;3141;49.234;9.326;2024-02-26T01:37:28;97782.88;;;10.35;63.20
6216;BME280;3141;49.234;9.326;2024-02-26T01:38:12;97788.16;;;10.35;63.26
6216;BME280;3141;49.234;9.326;2024-02-26T01:38:54;97788.13;;;10.22;63.52
6216;BME280;3141;49.234;9.326;2024-02-26T01:39:36;97789.56;;;10.31;63.44
6216;BME280;3141;49.234;9.326;2024-02-26T01:40:19;97793.25;;;10.36;63.49
6216;BME280;3141;49.234;9.326;2024-02-26T01:41:02;97799.09;;;10.32;63.25
6216;BME280;3141;49.234;9.326;2024-02-26T01:41:45;97795.25;;;10.34;63.49
6216;BME280;3141;49.234;9.326;2024-02-26T01:42:27;97797.09;;;10.34;63.65
6216;BME280;3141;49.234;9.326;2024-02-26T01:43:09;97797.69;;;10.29;63.36
6216;BME280;3141;49.234;9.326;2024-02-26T01:43:52;97794.03;;;10.30;63.40
6216;BME280;3141;49.234;9.326;2024-02-26T01:44:34;97789.56;;;10.37;62.99
6216;BME280;3141;49.234;9.326;2024-02-26T01:45:17;97803.59;;;10.38;63.02
6216;BME280;3141;49.234;9.326;2024-02-26T01:46:11;97796.28;;;10.40;63.10
6216;BME280;3141;49.234;9.326;2024-02-26T01:46:55;97797.28;;;10.39;63.27
6216;BME280;3141;49.234;9.326;2024-02-26T01:47:38;97797.91;;;10.41;63.45
6216;BME280;3141;49.234;9.326;2024-02-26T01:48:20;97803.41;;;10.39;63.48
6216;BME280;3141;49.234;9.326;2024-02-26T01:49:03;97802.00;;;10.37;63.27
6216;BME280;3141;49.234;9.326;2024-02-26T01:49:45;97805.63;;;10.36;63.48
6216;BME280;3141;49.234;9.326;2024-02-26T01:50:28;97805.22;;;10.39;63.52
6216;BME280;3141;49.234;9.326;2024-02-26T01:51:12;97808.88;;;10.38;63.35
6216;BME280;3141;49.234;9.326;2024-02-26T01:51:54;97812.56;;;10.37;63.23
6216;BME280;3141;49.234;9.326;2024-02-26T01:52:37;97813.56;;;10.36;63.38
6216;BME280;3141;49.234;9.326;2024-02-26T01:53:19;97804.63;;;10.37;63.44
6216;BME280;3141;49.234;9.326;2024-02-26T01:54:03;97809.28;;;10.35;63.53
6216;BME280;3141;49.234;9.326;2024-02-26T01:54:47;97809.28;;;10.35;63.76
6216;BME280;3141;49.234;9.326;2024-02-26T01:55:29;97809.28;;;10.35;63.81
6216;BME280;3141;49.234;9.326;2024-02-26T01:56:12;97814.78;;;10.33;64.05
6216;BME280;3141;49.234;9.326;2024-02-26T01:56:57;97817.41;;;10.33;64.07
6216;BME280;3141;49.234;9.326;2024-02-26T01:57:41;97822.88;;;10.32;64.07
6216;BME280;3141;49.234;9.326;2024-02-26T01:58:24;97825.91;;;10.29;64.65
6216;BME280;3141;49.234;9.326;2024-02-26T01:59:07;97823.28;;;10.29;64.44
6216;BME280;3141;49.234;9.326;2024-02-26T02:00:32;97821.66;;;10.28;64.70
6216;BME280;3141;49.234;9.326;2024-02-26T02:01:15;97821.88;;;10.26;64.56
6216;BME280;3141;49.234;9.326;2024-02-26T02:02:00;97822.44;;;10.22;65.11
6216;BME280;3141;49.234;9.326;2024-02-26T02:02:44;97821.59;;;10.15;65.24
6216;BME280;3141;49.234;9.326;2024-02-26T02:03:30;97821.72;;;9.94;66.36
6216;BME280;3141;49.234;9.326;2024-02-26T02:04:12;97822.91;;;9.91;66.83
6216;BME280;3141;49.234;9.326;2024-02-26T02:04:56;97830.06;;;10.04;66.14
6216;BME280;3141;49.234;9.326;2024-02-26T02:05:38;97824.56;;;9.99;66.08
6216;BME280;3141;49.234;9.326;2024-02-26T02:06:24;97828.22;;;9.98;66.28
6216;BME280;3141;49.234;9.326;2024-02-26T02:07:06;97828.63;;;10.01;66.46
6216;BME280;3141;49.234;9.326;2024-02-26T02:07:49;97830.06;;;10.04;66.20
6216;BME280;3141;49.234;9.326;2024-02-26T02:08:31;97826.94;;;9.87;67.21
6216;BME280;3141;49.234;9.326;2024-02-26T02:09:14;97826.38;;;9.92;66.93
6216;BME280;3141;49.234;9.326;2024-02-26T02:09:57;97825.31;;;9.80;67.76
6216;BME280;3141;49.234;9.326;2024-02-26T02:10:41;97824.06;;;9.76;67.92
6216;BME280;3141;49.234;9.326;2024-02-26T02:11:24;97818.81;;;9.89;67.48
6216;BME280;3141;49.234;9.326;2024-02-26T02:12:06;97824.16;;;9.95;67.19
6216;BME280;3141;49.234;9.326;2024-02-26T02:12:49;97822.56;;;10.01;66.85
6216;BME280;3141;49.234;9.326;2024-02-26T02:13:31;97826.41;;;10.05;66.92
6216;BME280;3141;49.234;9.326;2024-02-26T02:14:14;97822.28;;;9.89;67.42
6216;BME280;3141;49.234;9.326;2024-02-26T02:14:57;97818.81;;;9.82;67.77
6216;BME280;3141;49.234;9.326;2024-02-26T02:15:39;97827.94;;;9.80;67.74
6216;BME280;3141;49.234;9.326;2024-02-26T02:16:22;97821.59;;;9.68;68.53
6216;BME280;3141;49.234;9.326;2024-02-26T02:17:04;97833.69;;;9.56;68.97
6216;BME280;3141;49.234;9.326;2024-02-26T02:17:46;97833.63;;;9.49;69.35
6216;BME280;3141;49.234;9.326;2024-02-26T02:18:29;97834.44;;;9.50;69.39
6216;BME280;3141;49.234;9.326;2024-02-26T02:19:12;97835.31;;;9.57;69.56
6216;BME280;3141;49.234;9.326;2024-02-26T02:19:54;97835.75;;;9.60;69.04
6216;BME280;3141;49.234;9.326;2024-02-26T02:20:37;97833.94;;;9.67;69.02
6216;BME280;3141;49.234;9.326;2024-02-26T02:21:19;97829.31;;;9.76;68.67
6216;BME280;3141;49.234;9.326;2024-02-26T02:22:01;97825.31;;;9.80;68.67
6216;BME280;3141;49.234;9.326;2024-02-26T02:22:47;97826.09;;;9.80;68.39
6216;BME280;3141;49.234;9.326;2024-02-26T02:23:29;97824.06;;;9.82;68.46
6216;BME280;3141;49.234;9.326;2024-02-26T02:24:12;97822.81;;;9.72;68.81
6216;BME280;3141;49.234;9.326;2024-02-26T02:24:54;97816.72;;;9.71;68.79
6216;BME280;3141;49.234;9.326;2024-02-26T02:25:36;97815.75;;;9.79;68.72
6216;BME280;3141;49.234;9.326;2024-02-26T02:26:19;97817.94;;;9.75;68.62
6216;BME280;3141;49.234;9.326;2024-02-26T02:27:02;97813.94;;;9.79;68.90
6216;BME280;3141;49.234;9.326;2024-02-26T02:27:44;97814.38;;;9.89;68.20
6216;BME280;3141;49.234;9.326;2024-02-26T02:28:27;97816.81;;;9.91;68.09
6216;BME280;3141;49.234;9.326;2024-02-26T02:29:10;97812.34;;;9.85;68.08
6216;BME280;3141;49.234;9.326;2024-02-26T02:29:53;97819.66;;;9.96;67.67
6216;BME280;3141;49.234;9.326;2024-02-26T02:30:36;97820.91;;;10.00;67.67
6216;BME280;3141;49.234;9.326;2024-02-26T02:31:20;97823.16;;;10.03;67.58
6216;BME280;3141;49.234;9.326;2024-02-26T02:32:03;97831.50;;;10.06;67.73
6216;BME280;3141;49.234;9.326;2024-02-26T02:32:46;97832.72;;;10.04;67.42
6216;BME280;3141;49.234;9.326;2024-02-26T02:33:29;97835.94;;;9.99;67.86
6216;BME280;3141;49.234;9.326;2024-02-26T02:34:12;97837.16;;;10.03;67.53
6216;BME280;3141;49.234;9.326;2024-02-26T02:34:55;97839.59;;;10.05;67.74
6216;BME280;3141;49.234;9.326;2024-02-26T02:35:38;97836.34;;;10.03;67.72
6216;BME280;3141;49.234;9.326;2024-02-26T02:36:20;97835.16;;;10.05;67.50
6216;BME280;3141;49.234;9.326;2024-02-26T02:37:03;97830.22;;;9.96;67.81
6216;BME280;3141;49.234;9.326;2024-02-26T02:37:45;97830.28;;;10.02;67.66
6216;BME280;3141;49.234;9.326;2024-02-26T02:38:27;97823.34;;;9.95;67.66
6216;BME280;3141;49.234;9.326;2024-02-26T02:39:11;97804.56;;;9.77;68.53
6216;BME280;3141;49.234;9.326;2024-02-26T02:39:54;97795.16;;;9.61;69.02
6216;BME280;3141;49.234;9.326;2024-02-26T02:40:37;97789.63;;;9.50;69.47
6216;BME280;3141;49.234;9.326;2024-02-26T02:41:19;97790.44;;;9.50;69.79
6216;BME280;3141;49.234;9.326;2024-02-26T02:42:01;97783.72;;;9.48;70.03
6216;BME280;3141;49.234;9.326;2024-02-26T02:42:44;97771.97;;;9.50;69.99
6216;BME280;3141;49.234;9.326;2024-02-26T02:43:26;97755.69;;;9.33;70.94
6216;BME280;3141;49.234;9.326;2024-02-26T02:44:08;97746.72;;;9.28;71.77
6216;BME280;3141;49.234;9.326;2024-02-26T02:44:51;97755.50;;;9.07;71.92
6216;BME280;3141;49.234;9.326;2024-02-26T02:45:33;97770.91;;;9.04;72.13
6216;BME280;3141;49.234;9.326;2024-02-26T02:46:15;97760.03;;;9.20;69.69
6216;BME280;3141;49.234;9.326;2024-02-26T02:46:58;97759.13;;;9.41;68.92
6216;BME280;3141;49.234;9.326;2024-02-26T02:47:40;97762.31;;;9.64;68.25
6216;BME280;3141;49.234;9.326;2024-02-26T02:48:22;97753.00;;;9.68;67.76
6216;BME280;3141;49.234;9.326;2024-02-26T02:49:11;97758.72;;;9.78;67.61
6216;BME280;3141;49.234;9.326;2024-02-26T02:49:53;97757.69;;;9.79;66.75
6216;BME280;3141;49.234;9.326;2024-02-26T02:50:35;97767.69;;;9.90;66.18
6216;BME280;3141;49.234;9.326;2024-02-26T02:51:18;97776.03;;;9.93;66.29
6216;BME280;3141;49.234;9.326;2024-02-26T02:52:00;97772.56;;;9.93;66.07
6216;BME280;3141;49.234;9.326;2024-02-26T02:52:43;97785.00;;;9.99;65.99
6216;BME280;3141;49.234;9.326;2024-02-26T02:53:25;97776.03;;;10.00;66.33
6216;BME280;3141;49.234;9.326;2024-02-26T02:54:07;97779.72;;;10.05;65.56
6216;BME280;3141;49.234;9.326;2024-02-26T02:54:50;97775.06;;;10.01;65.82
6216;BME280;3141;49.234;9.326;2024-02-26T02:55:32;97775.25;;;10.06;66.06
6216;BME280;3141;49.234;9.326;2024-02-26T02:56:14;97770.97;;;10.05;66.00
6216;BME280;3141;49.234;9.326;2024-02-26T02:56:57;97768.13;;;10.06;65.30
6216;BME280;3141;49.234;9.326;2024-02-26T02:57:39;97757.97;;;9.97;65.80
6216;BME280;3141;49.234;9.326;2024-02-26T02:58:23;97777.03;;;9.92;65.58
6216;BME280;3141;49.234;9.326;2024-02-26T02:59:05;97782.34;;;9.99;66.12
6216;BME280;3141;49.234;9.326;2024-02-26T02:59:48;97788.34;;;9.80;66.23
6216;BME280;3141;49.234;9.326;2024-02-26T03:00:30;97795.47;;;9.86;65.94
6216;BME280;3141;49.234;9.326;2024-02-26T03:01:13;97800.19;;;9.97;65.82
6216;BME280;3141;49.234;9.326;2024-02-26T03:01:55;97804.69;;;10.03;65.13
6216;BME280;3141;49.234;9.326;2024-02-26T03:02:38;97802.91;;;10.10;65.17
6216;BME280;3141;49.234;9.326;2024-02-26T03:03:20;97812.22;;;10.06;65.07
6216;BME280;3141;49.234;9.326;2024-02-26T03:04:03;97828.63;;;10.01;65.06
6216;BME280;3141;49.234;9.326;2024-02-26T03:04:45;97825.53;;;9.91;65.26
6216;BME280;3141;49.234;9.326;2024-02-26T03:05:27;97823.34;;;9.95;65.78
6216;BME280;3141;49.234;9.326;2024-02-26T03:06:10;97812.78;;;10.01;65.66
6216;BME280;3141;49.234;9.326;2024-02-26T03:06:52;97814.94;;;10.25;64.85
6216;BME280;3141;49.234;9.326;2024-02-26T03:07:34;97812.28;;;10.25;64.97
6216;BME280;3141;49.234;9.326;2024-02-26T03:08:17;97813.72;;;10.21;64.96
6216;BME280;3141;49.234;9.326;2024-02-26T03:09:01;97806.81;;;10.20;65.27
6216;BME280;3141;49.234;9.326;2024-02-26T03:09:44;97810.38;;;10.06;65.41
6216;BME280;3141;49.234;9.326;2024-02-26T03:10:26;97811.03;;;10.08;65.55
6216;BME280;3141;49.234;9.326;2024-02-26T03:11:13;97802.75;;;10.24;65.32
6216;BME280;3141;49.234;9.326;2024-02-26T03:11:55;97811.50;;;10.25;65.45
6216;BME280;3141;49.234;9.326;2024-02-26T03:12:38;97812.91;;;10.27;65.38
6216;BME280;3141;49.234;9.326;2024-02-26T03:13:20;97819.84;;;10.28;65.24
6216;BME280;3141;49.234;9.326;2024-02-26T03:14:03;97820.41;;;10.17;65.52
6216;BME280;3141;49.234;9.326;2024-02-26T03:14:45;97822.13;;;9.97;66.79
6216;BME280;3141;49.234;9.326;2024-02-26T03:15:27;97830.81;;;9.91;67.11
6216;BME280;3141;49.234;9.326;2024-02-26T03:16:09;97826.28;;;9.79;67.62
6216;BME280;3141;49.234;9.326;2024-02-26T03:16:56;97828.94;;;9.79;67.61
6216;BME280;3141;49.234;9.326;2024-02-26T03:17:38;97830.78;;;9.78;67.80
6216;BME280;3141;49.234;9.326;2024-02-26T03:18:20;97842.50;;;9.69;68.22
6216;BME280;3141;49.234;9.326;2024-02-26T03:19:03;97841.03;;;9.67;68.58
6216;BME280;3141;49.234;9.326;2024-02-26T03:19:46;97842.28;;;9.71;68.76
6216;BME280;3141;49.234;9.326;2024-02-26T03:20:29;97842.41;;;9.90;68.40
6216;BME280;3141;49.234;9.326;2024-02-26T03:21:11;97835.56;;;10.02;67.54
6216;BME280;3141;49.234;9.326;2024-02-26T03:21:53;97832.31;;;10.07;66.83
6216;BME280;3141;49.234;9.326;2024-02-26T03:22:38;97832.78;;;10.17;66.89
6216;BME280;3141;49.234;9.326;2024-02-26T03:23:20;97827.91;;;10.20;66.45
6216;BME280;3141;49.234;9.326;2024-02-26T03:24:03;97835.84;;;10.27;66.00
6216;BME280;3141;49.234;9.326;2024-02-26T03:24:46;97841.31;;;10.12;66.67
6216;BME280;3141;49.234;9.326;2024-02-26T03:25:28;97843.25;;;9.97;67.52
6216;BME280;3141;49.234;9.326;2024-02-26T03:26:11;97839.56;;;9.92;67.28
6216;BME280;3141;49.234;9.326;2024-02-26T03:26:56;97845.72;;;10.05;67.17
6216;BME280;3141;49.234;9.326;2024-02-26T03:27:39;97839.88;;;10.10;67.04
6216;BME280;3141;49.234;9.326;2024-02-26T03:28:21;97851.88;;;10.19;66.50
6216;BME280;3141;49.234;9.326;2024-02-26T03:29:04;97847.44;;;10.26;66.23
6216;BME280;3141;49.234;9.326;2024-02-26T03:29:47;97845.84;;;10.31;65.75
6216;BME280;3141;49.234;9.326;2024-02-26T03:30:30;97847.03;;;10.29;65.63
6216;BME280;3141;49.234;9.326;2024-02-26T03:31:12;97841.75;;;10.22;65.84
6216;BME280;3141;49.234;9.326;2024-02-26T03:31:54;97845.84;;;10.31;65.66
6216;BME280;3141;49.234;9.326;2024-02-26T03:32:38;97843.00;;;10.33;65.18
6216;BME280;3141;49.234;9.326;2024-02-26T03:33:20;97847.00;;;10.16;65.94
6216;BME280;3141;49.234;9.326;2024-02-26T03:34:03;97850.56;;;10.02;66.13
6216;BME280;3141;49.234;9.326;2024-02-26T03:34:45;97854.81;;;9.96;66.63
6216;BME280;3141;49.234;9.326;2024-02-26T03:35:27;97859.31;;;10.02;66.22
6216;BME280;3141;49.234;9.326;2024-02-26T03:36:10;97856.81;;;9.94;66.49
6216;BME280;3141;49.234;9.326;2024-02-26T03:36:52;97855.41;;;9.92;66.96
6216;BME280;3141;49.234;9.326;2024-02-26T03:37:34;97869.66;;;9.97;66.80
6216;BME280;3141;49.234;9.326;2024-02-26T03:38:17;97862.38;;;10.06;66.48
6216;BME280;3141;49.234;9.326;2024-02-26T03:38:59;97863.06;;;10.14;66.09
6216;BME280;3141;49.234;9.326;2024-02-26T03:39:41;97852.59;;;10.00;66.50
6216;BME280;3141;49.234;9.326;2024-02-26T03:40:23;97856.06;;;10.07;66.30
6216;BME280;3141;49.234;9.326;2024-02-26T03:41:06;97853.91;;;10.17;66.12
6216;BME280;3141;49.234;9.326;2024-02-26T03:41:50;97856.41;;;10.25;65.79
6216;BME280;3141;49.234;9.326;2024-02-26T03:42:33;97857.38;;;10.24;65.50
6216;BME280;3141;49.234;9.326;2024-02-26T03:43:15;97863.47;;;10.18;65.63
6216;BME280;3141;49.234;9.326;2024-02-26T03:43:57;97862.84;;;10.09;66.10
6216;BME280;3141;49.234;9.326;2024-02-26T03:44:39;97866.06;;;10.11;66.16
6216;BME280;3141;49.234;9.326;2024-02-26T03:45:22;97870.78;;;10.16;66.47
6216;BME280;3141;49.234;9.326;2024-02-26T03:46:07;97857.78;;;10.21;65.96
6216;BME280;3141;49.234;9.326;2024-02-26T03:46:51;97862.47;;;10.25;65.88
6216;BME280;3141;49.234;9.326;2024-02-26T03:47:33;97869.81;;;10.30;65.50
6216;BME280;3141;49.234;9.326;2024-02-26T03:48:15;97862.25;;;10.27;65.66
6216;BME280;3141;49.234;9.326;2024-02-26T03:48:57;97861.69;;;10.31;65.51
6216;BME280;3141;49.234;9.326;2024-02-26T03:49:40;97858.63;;;10.28;65.30
6216;BME280;3141;49.234;9.326;2024-02-26T03:50:22;97853.56;;;10.33;65.62
6216;BME280;3141;49.234;9.326;2024-02-26T03:51:05;97861.91;;;10.36;65.20
6216;BME280;3141;49.234;9.326;2024-02-26T03:51:48;97864.97;;;10.33;64.98
6216;BME280;3141;49.234;9.326;2024-02-26T03:52:30;97865.91;;;10.19;66.17
6216;BME280;3141;49.234;9.326;2024-02-26T03:53:13;97867.50;;;10.14;66.16
6216;BME280;3141;49.234;9.326;2024-02-26T03:53:55;97875.44;;;10.14;66.46